Humacao, Puerto Rico
Current Conditions -  °F | °C
As of 7:53 PM on Sunday 25 Jan 2015 (Local Time) from TJNR Reporting Station
Clear Clear  
Wind Chill: 72°   Ceiling: Unl
Heat Index: 72°   Visibility: 10mi
Dew Point: 68°   Wind: 3mph
Humidity: 87%   Direction: 290°WNW
Pressure: 30.04"   Gusts: NA
Location:  18.15°N, 65.82°W
Report Text: TJNR 252353Z AUTO 29003KT 10SM CLR 22/20 A3004 RMK AO2 SLP172 60000 T02220200 10289 20222 53008 $
Loading
Personal Weather Stations






























Interactive Weather Map New forecast layout! Learn more

10-Day Weather Forecast

Advertisements
Track Severe Weather on mobile